Time;durP1;ratioP1;P1;durP2;ratioP2;P2;SDS_P1;SDS_P2;PMS_P1;PMS_P2;Temp;Humidity;BMP_temperature;BMP_pressure;BME280_temperature;BME280_humidity;BME280_pressure;Samples;Min_cycle;Max_cycle;Signal;HPM_P1;HPM_P2
2022/05/08 00:01:55;;;;;;;0.50;0.50;;;6.50;99.90;;;;;;5033858;28;20128;-79
2022/05/08 00:04:21;;;;;;;0.70;0.70;;;6.50;99.90;;;;;;5034665;28;20135;-78
2022/05/08 00:06:46;;;;;;;0.50;0.50;;;6.60;99.90;;;;;;5033877;28;20056;-77
2022/05/08 00:09:12;;;;;;;0.70;0.70;;;6.50;99.90;;;;;;5004740;28;20485;-78
2022/05/08 00:11:38;;;;;;;0.50;0.50;;;6.50;99.90;;;;;;5022073;28;20382;-79
2022/05/08 00:14:04;;;;;;;1.13;1.13;;;6.50;99.90;;;;;;5026370;28;20372;-78
2022/05/08 00:16:29;;;;;;;0.70;0.70;;;6.40;99.90;;;;;;5044751;28;20044;-77
2022/05/08 00:18:55;;;;;;;0.50;0.50;;;6.50;99.90;;;;;;5017825;28;20052;-78
2022/05/08 00:21:21;;;;;;;0.57;0.57;;;6.50;99.90;;;;;;5048020;28;20049;-77
2022/05/08 00:23:47;;;;;;;0.40;0.40;;;6.50;99.90;;;;;;5043128;28;20048;-78
2022/05/08 00:26:13;;;;;;;0.50;0.50;;;6.50;99.90;;;;;;5032012;28;20052;-79
2022/05/08 00:28:39;;;;;;;0.65;0.65;;;6.50;99.90;;;;;;5018382;28;20041;-78
2022/05/08 00:31:09;;;;;;;0.60;0.60;;;6.50;99.90;;;;;;5034680;28;21177;-78
2022/05/08 00:33:36;;;;;;;0.40;0.40;;;6.50;99.90;;;;;;5041525;28;20049;-79
2022/05/08 00:36:03;;;;;;;0.55;0.55;;;6.50;99.90;;;;;;5043840;28;20065;-79
2022/05/08 00:38:28;;;;;;;0.70;0.70;;;6.40;99.90;;;;;;5013623;28;20079;-77
2022/05/08 00:40:54;;;;;;;0.50;0.50;;;6.40;99.90;;;;;;5033458;28;20068;-80
2022/05/08 00:43:40;;;;;;;0.60;0.60;;;6.40;99.90;;;;;;5032733;28;20044;-76
2022/05/08 00:46:08;;;;;;;0.50;0.50;;;6.40;99.90;;;;;;5043629;28;20142;-79
2022/05/08 00:48:34;;;;;;;0.50;0.50;;;6.40;99.90;;;;;;5049676;28;20044;-80
2022/05/08 00:51:08;;;;;;;0.55;0.55;;;6.40;99.90;;;;;;5048736;28;20494;-79
2022/05/08 00:53:40;;;;;;;0.52;0.52;;;6.40;99.90;;;;;;5049645;28;20103;-79
2022/05/08 00:56:08;;;;;;;0.63;0.63;;;6.40;99.90;;;;;;5049710;28;20048;-78
2022/05/08 00:58:35;;;;;;;0.60;0.60;;;6.40;99.90;;;;;;5029593;28;20048;-78
2022/05/08 01:01:02;;;;;;;0.60;0.60;;;6.40;99.90;;;;;;5032883;28;20091;-77
2022/05/08 01:03:28;;;;;;;0.40;0.40;;;6.30;99.90;;;;;;5048948;28;20499;-78
2022/05/08 01:05:55;;;;;;;0.60;0.60;;;6.40;99.90;;;;;;5027289;28;20099;-78
2022/05/08 01:08:22;;;;;;;0.60;0.60;;;6.40;99.90;;;;;;5044117;28;20370;-76
2022/05/08 01:10:48;;;;;;;0.60;0.60;;;6.40;99.90;;;;;;5029795;28;20041;-76
2022/05/08 01:13:14;;;;;;;0.60;0.60;;;6.40;99.90;;;;;;5015825;28;20044;-77
2022/05/08 01:15:44;;;;;;;;;;;6.30;99.90;;;;;;5033434;28;20120;-78
2022/05/08 01:18:12;;;;;;;0.50;0.50;;;6.30;99.90;;;;;;5029213;28;19992;-77
2022/05/08 01:20:39;;;;;;;0.45;0.45;;;6.30;99.90;;;;;;5033174;28;20394;-78
2022/05/08 01:23:06;;;;;;;0.50;0.50;;;6.20;99.90;;;;;;5030404;28;20045;-78
2022/05/08 01:25:34;;;;;;;0.65;0.65;;;6.20;99.90;;;;;;5033087;28;20099;-78
2022/05/08 01:28:03;;;;;;;0.60;0.60;;;6.10;99.90;;;;;;5051127;28;20397;-78
2022/05/08 01:30:35;;;;;;;0.50;0.50;;;6.10;99.90;;;;;;5021768;28;20077;-78
2022/05/08 01:33:01;;;;;;;0.77;0.77;;;6.00;99.90;;;;;;5019073;28;20076;-79
2022/05/08 01:35:28;;;;;;;0.70;0.70;;;6.00;99.90;;;;;;5026661;28;20156;-79
2022/05/08 01:37:55;;;;;;;0.60;0.60;;;5.90;99.90;;;;;;5044205;28;20053;-78
2022/05/08 01:40:20;;;;;;;0.47;0.47;;;5.90;99.90;;;;;;5031642;28;20067;-79
2022/05/08 01:42:46;;;;;;;0.70;0.70;;;5.90;99.90;;;;;;5035847;28;20474;-79
2022/05/08 01:45:12;;;;;;;0.70;0.70;;;5.90;99.90;;;;;;5003071;28;20110;-78
2022/05/08 01:50:29;;;;;;;0.68;0.68;;;5.80;99.90;;;;;;5039854;28;20037;-80
2022/05/08 01:52:56;;;;;;;0.70;0.70;;;5.80;99.90;;;;;;5036808;28;20390;-78
2022/05/08 01:55:22;;;;;;;0.60;0.60;;;5.70;99.90;;;;;;5019834;28;20044;-78
2022/05/08 01:57:49;;;;;;;0.70;0.70;;;5.70;99.90;;;;;;4999648;28;20491;-79
2022/05/08 02:00:16;;;;;;;0.55;0.55;;;5.60;99.90;;;;;;5018754;28;20083;-78
2022/05/08 02:02:52;;;;;;;0.70;0.70;;;5.50;99.90;;;;;;5051585;28;20451;-78
2022/05/08 02:05:22;;;;;;;0.60;0.60;;;5.50;99.90;;;;;;5053088;28;20093;-77
2022/05/08 02:07:49;;;;;;;0.60;0.60;;;5.40;99.90;;;;;;5052115;28;20319;-78
2022/05/08 02:10:17;;;;;;;0.60;0.60;;;5.40;99.90;;;;;;5051661;28;20498;-78
2022/05/08 02:12:44;;;;;;;0.60;0.60;;;5.50;99.90;;;;;;5035213;28;20037;-77
2022/05/08 02:15:11;;;;;;;0.60;0.60;;;5.40;99.90;;;;;;5052332;28;20033;-78
2022/05/08 02:17:38;;;;;;;0.50;0.50;;;5.30;99.90;;;;;;5052908;28;20087;-78
2022/05/08 02:20:06;;;;;;;1.52;0.93;;;5.30;99.90;;;;;;5035981;28;20052;-77
2022/05/08 02:22:32;;;;;;;0.68;0.68;;;5.30;99.90;;;;;;5031400;28;20078;-77
2022/05/08 02:24:58;;;;;;;0.60;0.60;;;5.20;99.90;;;;;;5046907;28;20466;-78
2022/05/08 02:27:24;;;;;;;0.60;0.60;;;5.20;99.90;;;;;;5051220;28;20163;-78
2022/05/08 02:29:51;;;;;;;0.73;0.73;;;5.10;99.90;;;;;;5036007;28;20037;-78
2022/05/08 02:32:17;;;;;;;0.70;0.70;;;5.10;99.90;;;;;;5012120;28;20037;-78
2022/05/08 02:34:43;;;;;;;;;;;5.00;99.90;;;;;;5034891;28;20509;-78
2022/05/08 02:37:08;;;;;;;0.60;0.60;;;4.90;99.90;;;;;;5033583;28;19927;-77
2022/05/08 02:39:34;;;;;;;0.73;0.73;;;5.00;99.90;;;;;;5035148;28;20048;-77
2022/05/08 02:42:00;;;;;;;0.70;0.70;;;4.80;99.90;;;;;;5050469;28;20470;-77
2022/05/08 02:44:26;;;;;;;0.60;0.60;;;4.80;99.90;;;;;;5027022;28;20080;-79
2022/05/08 02:46:53;;;;;;;0.90;0.90;;;4.80;99.90;;;;;;5025292;28;20077;-78
2022/05/08 02:49:26;;;;;;;0.60;0.60;;;4.80;99.90;;;;;;5036624;28;20052;-77
2022/05/08 02:51:51;;;;;;;0.60;0.60;;;4.70;99.90;;;;;;5034941;28;20033;-78
2022/05/08 02:54:17;;;;;;;0.65;0.65;;;4.50;99.90;;;;;;5009477;28;20377;-77
2022/05/08 02:59:27;;;;;;;0.60;0.60;;;4.60;99.90;;;;;;5049803;28;20491;-78
2022/05/08 03:01:54;;;;;;;0.68;0.68;;;4.50;99.90;;;;;;5034691;28;20048;-79
2022/05/08 03:04:20;;;;;;;0.80;0.80;;;4.40;99.90;;;;;;5032110;28;20103;-78
2022/05/08 03:06:46;;;;;;;0.65;0.65;;;4.30;99.90;;;;;;5021790;28;20044;-77
2022/05/08 03:09:13;;;;;;;0.60;0.60;;;4.30;99.90;;;;;;5040976;28;20037;-78
2022/05/08 03:11:39;;;;;;;0.80;0.80;;;4.20;99.90;;;;;;5032879;28;20521;-77
2022/05/08 03:14:04;;;;;;;0.60;0.60;;;4.20;99.90;;;;;;5013961;28;20065;-78
2022/05/08 03:16:31;;;;;;;0.60;0.60;;;4.30;99.90;;;;;;5048760;28;20048;-77
2022/05/08 03:18:57;;;;;;;0.70;0.70;;;4.70;99.90;;;;;;5016268;28;20041;-76
2022/05/08 03:21:24;;;;;;;0.60;0.60;;;4.20;99.90;;;;;;5032438;28;20094;-78
2022/05/08 03:23:51;;;;;;;0.65;0.65;;;4.20;99.90;;;;;;5049337;28;20041;-77
2022/05/08 03:26:19;;;;;;;0.75;0.75;;;4.20;99.90;;;;;;5033654;28;20032;-78
2022/05/08 03:28:45;;;;;;;0.70;0.70;;;4.20;99.90;;;;;;5049903;28;20048;-78
2022/05/08 03:31:12;;;;;;;0.70;0.70;;;4.10;99.90;;;;;;5046527;28;20117;-78
2022/05/08 03:33:39;;;;;;;0.60;0.60;;;4.70;99.90;;;;;;5041447;28;20069;-77
2022/05/08 03:36:10;;;;;;;0.60;0.60;;;4.10;99.90;;;;;;5046392;28;20045;-78
2022/05/08 03:38:40;;;;;;;0.60;0.60;;;4.10;99.90;;;;;;5002168;28;20037;-78
2022/05/08 03:41:07;;;;;;;0.50;0.50;;;4.20;99.90;;;;;;5027140;28;20433;-80
2022/05/08 03:43:38;;;;;;;0.50;0.50;;;4.20;99.90;;;;;;5032354;28;20348;-78
2022/05/08 03:46:04;;;;;;;0.70;0.70;;;4.20;99.90;;;;;;5049202;28;20045;-78
2022/05/08 03:48:30;;;;;;;0.70;0.70;;;4.20;99.90;;;;;;5019560;28;20090;-78
2022/05/08 03:50:55;;;;;;;0.60;0.60;;;4.20;99.90;;;;;;5013400;28;20045;-77
2022/05/08 03:53:23;;;;;;;0.70;0.70;;;4.30;99.90;;;;;;5015065;28;20039;-78
2022/05/08 03:55:48;;;;;;;0.68;0.68;;;4.30;99.90;;;;;;5000474;28;20052;-77
2022/05/08 03:58:16;;;;;;;0.70;0.70;;;4.30;99.90;;;;;;5012799;28;20045;-79
2022/05/08 04:00:41;;;;;;;0.60;0.60;;;4.50;99.90;;;;;;5047496;28;20367;-78
2022/05/08 04:03:08;;;;;;;0.77;0.77;;;4.40;99.90;;;;;;5028300;28;20106;-80
2022/05/08 04:05:35;;;;;;;0.60;0.60;;;4.40;99.90;;;;;;5013637;28;20100;-79
2022/05/08 04:08:01;;;;;;;0.63;0.63;;;4.40;99.90;;;;;;5033049;28;20049;-78
2022/05/08 04:10:28;;;;;;;0.70;0.70;;;4.50;99.90;;;;;;5010931;28;20333;-79
2022/05/08 04:12:56;;;;;;;0.70;0.70;;;4.50;99.90;;;;;;5048543;28;20087;-78
2022/05/08 04:18:09;;;;;;;;;;;4.50;99.90;;;;;;5048769;28;20097;-78
2022/05/08 04:20:36;;;;;;;0.60;0.60;;;4.60;99.90;;;;;;5025507;28;19996;-79
2022/05/08 04:25:56;;;;;;;0.70;0.70;;;4.50;99.90;;;;;;5046226;28;20037;-78
2022/05/08 04:28:23;;;;;;;0.70;0.70;;;4.50;99.90;;;;;;5014067;28;20508;-79
2022/05/08 04:30:50;;;;;;;0.70;0.70;;;4.60;99.90;;;;;;5050754;28;20051;-79
2022/05/08 04:33:15;;;;;;;0.60;0.60;;;4.60;99.90;;;;;;5030510;28;20100;-77
2022/05/08 04:35:41;;;;;;;0.70;0.70;;;4.70;99.90;;;;;;5015551;28;20064;-78
2022/05/08 04:38:13;;;;;;;0.70;0.70;;;4.70;99.90;;;;;;5031845;28;20045;-78
2022/05/08 04:40:41;;;;;;;0.50;0.50;;;4.80;99.90;;;;;;5047184;28;20051;-78
2022/05/08 04:43:07;;;;;;;0.63;0.63;;;4.80;99.90;;;;;;5023266;28;20037;-78
2022/05/08 04:45:33;;;;;;;0.70;0.70;;;4.90;99.90;;;;;;5033348;28;20045;-77
2022/05/08 04:47:59;;;;;;;;;;;5.00;99.90;;;;;;5047189;28;20090;-79
2022/05/08 04:50:27;;;;;;;0.47;0.47;;;5.00;99.90;;;;;;5021346;28;19921;-78
2022/05/08 04:52:53;;;;;;;0.77;0.77;;;5.10;99.90;;;;;;5011000;28;20067;-79
2022/05/08 04:55:19;;;;;;;0.60;0.60;;;5.30;99.90;;;;;;5013916;28;20045;-79
2022/05/08 04:57:44;;;;;;;0.80;0.80;;;5.40;99.90;;;;;;5006181;28;20122;-80
2022/05/08 05:00:11;;;;;;;0.70;0.70;;;5.60;99.90;;;;;;5031451;28;20048;-78
2022/05/08 05:02:45;;;;;;;0.80;0.80;;;5.70;99.90;;;;;;5036008;28;20049;-78
2022/05/08 05:05:11;;;;;;;0.60;0.60;;;5.80;99.90;;;;;;5037767;28;20359;-76
2022/05/08 05:07:40;;;;;;;0.80;0.80;;;6.00;99.90;;;;;;5014065;28;20075;-75
2022/05/08 05:10:06;;;;;;;0.70;0.70;;;6.20;99.90;;;;;;5038055;28;20128;-78
2022/05/08 05:12:39;;;;;;;0.57;0.57;;;6.30;99.90;;;;;;5035940;28;20106;-79
2022/05/08 05:15:06;;;;;;;0.65;0.65;;;6.40;99.90;;;;;;5037198;28;20041;-79
2022/05/08 05:17:33;;;;;;;0.50;0.50;;;6.50;99.90;;;;;;5021562;28;20073;-76
2022/05/08 05:19:59;;;;;;;0.60;0.60;;;6.60;99.90;;;;;;5036307;28;20033;-78
2022/05/08 05:22:25;;;;;;;0.50;0.50;;;6.60;99.90;;;;;;5033622;28;20082;-78
2022/05/08 05:24:51;;;;;;;0.60;0.60;;;6.70;99.90;;;;;;5036768;28;20052;-79
2022/05/08 05:27:17;;;;;;;0.70;0.70;;;6.80;99.90;;;;;;5035435;28;20041;-76
2022/05/08 05:29:43;;;;;;;0.60;0.60;;;6.80;99.90;;;;;;5033128;28;20052;-78
2022/05/08 05:32:09;;;;;;;0.55;0.55;;;6.90;99.90;;;;;;5051452;28;20072;-78
2022/05/08 05:34:34;;;;;;;0.50;0.50;;;6.90;99.90;;;;;;5044430;28;20132;-78
2022/05/08 05:37:00;;;;;;;0.60;0.60;;;7.00;99.90;;;;;;5036185;28;20036;-78
2022/05/08 05:39:27;;;;;;;0.50;0.50;;;7.10;99.90;;;;;;5035935;28;20042;-77
2022/05/08 05:41:53;;;;;;;0.63;0.63;;;7.20;99.90;;;;;;5017698;28;20045;-79
2022/05/08 05:44:18;;;;;;;0.60;0.60;;;7.30;99.90;;;;;;5009648;28;20102;-78
2022/05/08 05:49:34;;;;;;;0.60;0.60;;;7.70;99.90;;;;;;5038615;28;20420;-78
2022/05/08 05:52:02;;;;;;;0.40;0.40;;;7.90;99.90;;;;;;5032865;28;20113;-78
2022/05/08 05:54:29;;;;;;;0.60;0.60;;;8.00;99.90;;;;;;5010933;28;20060;-78
2022/05/08 05:56:56;;;;;;;0.55;0.55;;;8.10;99.90;;;;;;5017646;28;20068;-78
2022/05/08 05:59:21;;;;;;;0.60;0.60;;;8.30;99.90;;;;;;5017169;28;20048;-79
2022/05/08 06:01:48;;;;;;;0.60;0.60;;;8.50;99.90;;;;;;5043277;28;20407;-77
2022/05/08 06:04:15;;;;;;;0.50;0.50;;;8.70;99.90;;;;;;5010094;28;20040;-80
2022/05/08 06:06:41;;;;;;;0.40;0.40;;;8.90;99.90;;;;;;5024669;28;20044;-78
2022/05/08 06:09:07;;;;;;;0.60;0.60;;;9.00;99.90;;;;;;5022045;28;20175;-78
2022/05/08 06:11:35;;;;;;;0.57;0.57;;;9.20;99.90;;;;;;5035734;28;20036;-78
2022/05/08 06:14:02;;;;;;;0.40;0.40;;;9.30;99.90;;;;;;5018926;28;20394;-79
2022/05/08 06:16:28;;;;;;;0.50;0.50;;;9.40;99.90;;;;;;5033093;28;20044;-77
2022/05/08 06:18:54;;;;;;;0.50;0.50;;;9.60;99.90;;;;;;5034636;28;20040;-77
2022/05/08 06:21:19;;;;;;;0.50;0.50;;;9.70;99.90;;;;;;5003195;28;20558;-77
2022/05/08 06:23:45;;;;;;;0.50;0.50;;;9.90;99.90;;;;;;5035742;28;20045;-77
2022/05/08 06:26:15;;;;;;;0.60;0.60;;;9.90;99.90;;;;;;5018897;28;20570;-80
2022/05/08 06:28:42;;;;;;;0.50;0.50;;;10.10;99.90;;;;;;5017965;28;20060;-79
2022/05/08 06:31:07;;;;;;;0.40;0.40;;;10.10;99.90;;;;;;5041310;28;20036;-78
2022/05/08 06:33:33;;;;;;;0.40;0.40;;;10.20;99.90;;;;;;5039510;28;20041;-79
2022/05/08 06:35:59;;;;;;;0.38;0.38;;;10.20;99.90;;;;;;5038972;28;20041;-79
2022/05/08 06:38:24;;;;;;;0.43;0.43;;;10.20;99.90;;;;;;5036126;28;20068;-79
2022/05/08 06:40:50;;;;;;;0.47;0.47;;;10.20;99.90;;;;;;5018223;28;20408;-77
2022/05/08 06:43:17;;;;;;;0.50;0.50;;;10.20;99.90;;;;;;5052437;28;20124;-78
2022/05/08 06:45:44;;;;;;;0.95;0.95;;;10.30;99.90;;;;;;5036491;28;20045;-78
2022/05/08 06:48:09;;;;;;;0.40;0.40;;;10.40;99.90;;;;;;5034540;28;20119;-77
2022/05/08 06:50:35;;;;;;;0.40;0.40;;;10.80;99.90;;;;;;5035176;28;20116;-79
2022/05/08 06:53:06;;;;;;;0.28;0.28;;;11.20;99.90;;;;;;5035637;28;20470;-79
2022/05/08 06:55:33;;;;;;;0.50;0.50;;;11.20;99.90;;;;;;5068458;28;20445;-78
2022/05/08 06:57:59;;;;;;;0.30;0.30;;;11.10;99.90;;;;;;5050304;28;20074;-78
2022/05/08 07:03:10;;;;;;;0.50;0.50;;;11.20;99.90;;;;;;5043064;28;20045;-79
2022/05/08 07:05:40;;;;;;;0.30;0.30;;;11.20;99.90;;;;;;5027562;28;20045;-78
2022/05/08 07:08:06;;;;;;;0.40;0.40;;;11.10;99.90;;;;;;5030108;28;20500;-77
2022/05/08 07:10:32;;;;;;;0.50;0.50;;;11.00;99.90;;;;;;5034117;28;20119;-79
2022/05/08 07:12:58;;;;;;;0.80;0.77;;;10.90;99.90;;;;;;5044624;28;20459;-79
2022/05/08 07:15:29;;;;;;;0.52;0.52;;;10.80;99.90;;;;;;5020058;28;20494;-75
2022/05/08 07:17:55;;;;;;;0.60;0.60;;;10.80;99.90;;;;;;5013955;28;20080;-79
2022/05/08 07:20:21;;;;;;;0.40;0.40;;;10.90;99.90;;;;;;5015737;28;20352;-77
2022/05/08 07:22:46;;;;;;;0.57;0.57;;;10.90;99.90;;;;;;5051244;28;20135;-81
2022/05/08 07:25:12;;;;;;;;;;;11.10;99.90;;;;;;5032297;28;20049;-79
2022/05/08 07:27:39;;;;;;;0.47;0.47;;;11.20;99.90;;;;;;5025616;28;19924;-78
2022/05/08 07:30:09;;;;;;;0.50;0.50;;;11.20;99.90;;;;;;5036800;28;20083;-79
2022/05/08 07:32:35;;;;;;;0.38;0.38;;;11.30;99.90;;;;;;5024246;28;20075;-80
2022/05/08 07:37:49;;;;;;;0.50;0.50;;;11.40;99.90;;;;;;5046363;28;20042;-80
2022/05/08 07:40:15;;;;;;;0.40;0.40;;;11.50;99.90;;;;;;5000043;28;20061;-78
2022/05/08 07:42:46;;;;;;;0.40;0.40;;;11.70;99.90;;;;;;5051412;28;20132;-78
2022/05/08 07:45:13;;;;;;;0.40;0.40;;;11.80;99.90;;;;;;5034368;28;20049;-80
2022/05/08 07:47:40;;;;;;;0.30;0.30;;;11.90;99.90;;;;;;5049125;28;20501;-79
2022/05/08 07:50:11;;;;;;;0.32;0.32;;;12.00;99.90;;;;;;5051586;28;20051;-78
2022/05/08 07:52:39;;;;;;;0.35;0.35;;;12.10;99.90;;;;;;5033836;28;20406;-78
2022/05/08 07:55:05;;;;;;;0.50;0.50;;;11.90;99.90;;;;;;5039826;28;20487;-78
2022/05/08 07:57:34;;;;;;;0.35;0.35;;;12.00;99.90;;;;;;5025955;28;20045;-79
2022/05/08 08:00:00;;;;;;;0.65;0.65;;;12.00;99.90;;;;;;5016429;28;20033;-79
2022/05/08 08:02:26;;;;;;;0.38;0.38;;;12.10;99.90;;;;;;5054082;28;20390;-79
2022/05/08 08:04:52;;;;;;;0.30;0.30;;;11.90;99.90;;;;;;5003175;28;20040;-77
2022/05/08 08:07:18;;;;;;;0.50;0.50;;;11.70;99.90;;;;;;5035600;28;20094;-79
2022/05/08 08:09:44;;;;;;;0.35;0.35;;;11.40;99.90;;;;;;5001780;28;20041;-78
2022/05/08 08:12:10;;;;;;;0.40;0.40;;;11.20;99.90;;;;;;5010705;28;20045;-80
2022/05/08 08:14:41;;;;;;;0.40;0.40;;;11.30;99.90;;;;;;5029562;28;20056;-79
2022/05/08 08:17:08;;;;;;;0.30;0.30;;;11.30;99.90;;;;;;5037775;28;20029;-77
2022/05/08 08:19:35;;;;;;;0.30;0.30;;;11.40;99.90;;;;;;5061098;28;20047;-81
2022/05/08 08:22:01;;;;;;;0.30;0.30;;;11.40;99.90;;;;;;5000515;28;20079;-79
2022/05/08 08:24:27;;;;;;;0.30;0.30;;;11.30;99.90;;;;;;5050827;28;20036;-78
2022/05/08 08:26:53;;;;;;;0.25;0.25;;;11.20;99.90;;;;;;5028109;28;20518;-76
2022/05/08 08:29:18;;;;;;;0.40;0.40;;;11.20;99.90;;;;;;5016421;28;20060;-78
2022/05/08 08:31:44;;;;;;;0.20;0.20;;;11.30;99.90;;;;;;5014513;28;20128;-78
2022/05/08 08:34:10;;;;;;;0.50;0.50;;;11.30;99.90;;;;;;5018438;28;20080;-79
2022/05/08 08:36:36;;;;;;;0.82;0.75;;;11.40;99.90;;;;;;5014896;28;20486;-79
2022/05/08 08:39:02;;;;;;;;;;;11.60;99.90;;;;;;5028574;28;20043;-78
2022/05/08 08:41:34;;;;;;;0.25;0.25;;;11.70;99.90;;;;;;5034401;28;19916;-80
2022/05/08 08:49:54;;;;;;;0.50;0.50;;;12.30;99.90;;;;;;5037196;28;20094;-78
2022/05/08 08:52:22;;;;;;;0.40;0.40;;;12.40;99.90;;;;;;5033127;28;20044;-79
2022/05/08 08:54:47;;;;;;;0.40;0.40;;;12.50;99.90;;;;;;5024807;28;20050;-80
2022/05/08 08:57:13;;;;;;;0.28;0.28;;;12.70;99.90;;;;;;5027895;28;20049;-80
2022/05/08 08:59:42;;;;;;;1.17;1.13;;;12.60;99.90;;;;;;5035385;28;20036;-79
2022/05/08 09:02:18;;;;;;;0.30;0.30;;;12.60;99.90;;;;;;5050477;28;20047;-80
2022/05/08 09:04:45;;;;;;;0.47;0.47;;;12.70;99.90;;;;;;5034544;28;20076;-80
2022/05/08 09:07:47;;;;;;;0.30;0.30;;;13.40;99.90;;;;;;5017913;28;20401;-80
2022/05/08 09:10:22;;;;;;;0.63;0.63;;;13.30;99.90;;;;;;4948915;28;20038;-78
2022/05/08 09:12:54;;;;;;;0.30;0.30;;;13.50;99.90;;;;;;5013828;28;20087;-80
2022/05/08 09:15:24;;;;;;;0.50;0.50;;;13.30;99.90;;;;;;5049970;28;20049;-82
2022/05/08 09:18:01;;;;;;;1.60;1.23;;;13.10;99.90;;;;;;5050354;28;20548;-80
2022/05/08 09:20:51;;;;;;;0.30;0.30;;;12.90;99.90;;;;;;5050928;28;20049;-77
2022/05/08 09:23:22;;;;;;;0.43;0.43;;;12.70;99.90;;;;;;5031252;28;20037;-80
2022/05/08 09:26:08;;;;;;;0.40;0.40;;;12.50;99.90;;;;;;5010924;28;20049;-80
2022/05/08 09:28:42;;;;;;;0.40;0.40;;;12.30;99.90;;;;;;5020470;28;20056;-80
2022/05/08 09:31:12;;;;;;;0.40;0.40;;;12.10;99.90;;;;;;5051009;28;20118;-79
2022/05/08 09:33:43;;;;;;;0.50;0.47;;;12.00;99.90;;;;;;5034664;28;20033;-78
2022/05/08 09:36:22;;;;;;;0.40;0.40;;;12.10;99.90;;;;;;5033018;28;20080;-78
2022/05/08 09:38:59;;;;;;;0.25;0.25;;;12.30;99.90;;;;;;5018396;28;20037;-80
2022/05/08 09:41:44;;;;;;;0.30;0.30;;;12.50;99.90;;;;;;5027884;28;20045;-77
2022/05/08 09:44:11;;;;;;;0.30;0.30;;;12.50;99.90;;;;;;5016940;28;20138;-77
2022/05/08 09:46:38;;;;;;;0.40;0.40;;;13.10;99.90;;;;;;5025792;28;20033;-76
2022/05/08 09:49:06;;;;;;;0.50;0.50;;;13.30;99.90;;;;;;5035100;28;20043;-77
2022/05/08 09:51:33;;;;;;;0.50;0.50;;;13.50;99.90;;;;;;5050479;28;20041;-79
2022/05/08 09:54:01;;;;;;;0.40;0.40;;;13.50;99.90;;;;;;5055798;28;20048;-77
2022/05/08 09:56:28;;;;;;;0.30;0.30;;;13.50;99.90;;;;;;5041282;28;20056;-78
2022/05/08 09:58:54;;;;;;;3.72;0.85;;;13.40;99.90;;;;;;5029168;28;20052;-76
2022/05/08 10:01:20;;;;;;;0.73;0.73;;;13.30;99.90;;;;;;5053487;28;20402;-78
2022/05/08 10:03:47;;;;;;;3.03;0.40;;;13.30;99.90;;;;;;5034673;28;20040;-80
2022/05/08 10:06:14;;;;;;;0.40;0.40;;;13.40;99.90;;;;;;5027926;28;20052;-78
2022/05/08 10:08:41;;;;;;;0.30;0.30;;;13.30;99.90;;;;;;5018317;28;20041;-80
2022/05/08 10:14:01;;;;;;;0.47;0.47;;;13.10;99.90;;;;;;5046940;28;20072;-81
2022/05/08 10:17:02;;;;;;;0.40;0.40;;;13.20;99.90;;;;;;5034160;28;20041;-78
2022/05/08 10:19:28;;;;;;;0.55;0.55;;;13.30;99.90;;;;;;5032203;28;20107;-79
2022/05/08 10:21:56;;;;;;;0.30;0.30;;;13.30;99.90;;;;;;5030811;28;20061;-81
2022/05/08 10:24:43;;;;;;;0.28;0.28;;;13.30;99.90;;;;;;5035603;28;20057;-80
2022/05/08 10:27:30;;;;;;;0.47;0.47;;;13.30;99.90;;;;;;5047749;28;20053;-81
2022/05/08 10:29:56;;;;;;;0.50;0.50;;;13.50;99.90;;;;;;5038445;28;20040;-79
2022/05/08 10:32:31;;;;;;;0.47;0.47;;;13.50;99.90;;;;;;5054917;28;20636;-79
2022/05/08 10:35:11;;;;;;;0.32;0.32;;;13.40;99.90;;;;;;5054353;28;20083;-79
2022/05/08 10:37:37;;;;;;;0.50;0.50;;;13.40;99.90;;;;;;5036793;28;20045;-79
2022/05/08 10:40:25;;;;;;;0.50;0.50;;;13.50;99.90;;;;;;5055628;28;20116;-82
2022/05/08 10:43:08;;;;;;;0.22;0.22;;;13.30;99.90;;;;;;5052339;28;20122;-81
2022/05/08 10:45:34;;;;;;;0.30;0.30;;;13.20;99.90;;;;;;5052564;28;20052;-80
2022/05/08 10:48:10;;;;;;;4.38;0.73;;;13.20;99.90;;;;;;5034914;28;20037;-83
2022/05/08 10:50:37;;;;;;;0.40;0.40;;;13.20;99.90;;;;;;5035458;28;20045;-79
2022/05/08 10:53:03;;;;;;;0.38;0.38;;;13.40;99.90;;;;;;5035627;28;20033;-81
2022/05/08 10:55:29;;;;;;;0.40;0.40;;;13.60;99.90;;;;;;5019679;28;20044;-81
2022/05/08 10:57:55;;;;;;;0.50;0.50;;;13.70;99.90;;;;;;5035841;28;20090;-78
2022/05/08 11:00:26;;;;;;;0.30;0.30;;;13.60;99.90;;;;;;5049573;28;20402;-79
2022/05/08 11:02:56;;;;;;;0.38;0.38;;;13.60;99.90;;;;;;5046090;28;20113;-80
2022/05/08 11:05:26;;;;;;;0.30;0.30;;;13.60;99.90;;;;;;5053385;28;20075;-79
2022/05/08 11:07:53;;;;;;;0.30;0.30;;;13.60;99.90;;;;;;5050882;28;20040;-78
2022/05/08 11:10:33;;;;;;;0.30;0.30;;;13.70;99.90;;;;;;5051196;28;20045;-78
2022/05/08 11:13:09;;;;;;;0.20;0.20;;;13.90;99.90;;;;;;5020016;28;20475;-79
2022/05/08 11:15:58;;;;;;;0.22;0.22;;;13.80;99.30;;;;;;5048823;28;20047;-77
2022/05/08 11:18:27;;;;;;;0.40;0.40;;;13.80;99.90;;;;;;5037765;28;20041;-78
2022/05/08 11:21:02;;;;;;;0.30;0.30;;;13.80;99.90;;;;;;5015083;28;20029;-76
2022/05/08 11:23:33;;;;;;;0.30;0.30;;;13.80;99.70;;;;;;5043865;28;20123;-81
2022/05/08 11:26:01;;;;;;;0.73;0.70;;;13.80;99.90;;;;;;5046863;28;20041;-82
2022/05/08 11:28:28;;;;;;;0.28;0.28;;;13.80;99.90;;;;;;5030122;28;20040;-81
2022/05/08 11:30:55;;;;;;;0.30;0.30;;;14.00;99.90;;;;;;5030486;28;20033;-81
2022/05/08 11:36:27;;;;;;;4.70;1.02;;;14.00;99.90;;;;;;5036526;28;20053;-79
2022/05/08 11:38:58;;;;;;;0.75;0.75;;;13.90;99.90;;;;;;5028815;28;20071;-77
2022/05/08 11:41:50;;;;;;;0.40;0.40;;;14.00;99.90;;;;;;5026187;28;20139;-79
2022/05/08 11:44:16;;;;;;;0.40;0.40;;;14.10;99.90;;;;;;5050279;28;20487;-79
2022/05/08 11:46:50;;;;;;;0.35;0.35;;;14.20;99.90;;;;;;5033741;28;20037;-78
2022/05/08 11:49:21;;;;;;;0.32;0.32;;;14.40;99.90;;;;;;5053300;28;20467;-78
2022/05/08 11:52:06;;;;;;;0.50;0.50;;;14.50;99.50;;;;;;5047328;28;20475;-79
2022/05/08 11:54:40;;;;;;;0.30;0.30;;;14.60;99.90;;;;;;5029160;28;20395;-80
2022/05/08 11:57:10;;;;;;;0.40;0.40;;;14.50;98.50;;;;;;5023128;28;20726;-79
2022/05/08 11:59:48;;;;;;;0.30;0.30;;;14.50;98.00;;;;;;5045566;28;20084;-79
2022/05/08 12:02:15;;;;;;;0.40;0.40;;;14.40;99.40;;;;;;5028180;28;20510;-81
2022/05/08 12:04:43;;;;;;;0.30;0.30;;;14.30;99.20;;;;;;5029819;28;20452;-77
2022/05/08 12:07:15;;;;;;;0.40;0.40;;;14.40;99.20;;;;;;5017721;28;20049;-78
2022/05/08 12:09:44;;;;;;;0.25;0.25;;;14.50;99.60;;;;;;5016320;28;20036;-80
2022/05/08 12:12:32;;;;;;;0.60;0.60;;;14.70;97.70;;;;;;5045136;28;20037;-79
2022/05/08 12:15:15;;;;;;;0.30;0.30;;;14.80;97.30;;;;;;5044329;28;20052;-80
2022/05/08 12:17:44;;;;;;;0.60;0.60;;;15.10;98.90;;;;;;5049052;28;20044;-79
2022/05/08 12:20:13;;;;;;;0.93;0.93;;;15.10;98.30;;;;;;5050069;28;20057;-80
2022/05/08 12:22:39;;;;;;;1.95;0.55;;;14.90;97.20;;;;;;5028006;28;20042;-80
2022/05/08 12:25:09;;;;;;;0.38;0.38;;;14.90;96.10;;;;;;5041501;28;20076;-78
2022/05/08 12:27:35;;;;;;;0.30;0.30;;;14.90;96.50;;;;;;5029224;28;20065;-79
2022/05/08 12:30:02;;;;;;;1.05;0.38;;;14.80;97.00;;;;;;5050285;28;20048;-78
2022/05/08 12:32:28;;;;;;;0.30;0.30;;;14.80;96.70;;;;;;5042299;28;20041;-79
2022/05/08 12:34:54;;;;;;;0.63;0.63;;;14.80;96.40;;;;;;5052056;28;20068;-80
2022/05/08 12:37:21;;;;;;;0.60;0.40;;;14.90;96.60;;;;;;5052528;28;20052;-79
2022/05/08 12:39:47;;;;;;;0.40;0.40;;;14.90;95.60;;;;;;5042516;28;20141;-80
2022/05/08 12:42:13;;;;;;;0.40;0.40;;;14.90;95.10;;;;;;5038878;28;20113;-76
2022/05/08 12:44:39;;;;;;;0.30;0.30;;;14.90;95.20;;;;;;5047547;28;20044;-78
2022/05/08 12:47:09;;;;;;;;;;;15.10;95.80;;;;;;5045876;28;20041;-79
2022/05/08 12:49:38;;;;;;;0.50;0.50;;;15.20;95.50;;;;;;5043347;28;19924;-80
2022/05/08 12:52:06;;;;;;;0.30;0.30;;;15.30;96.00;;;;;;5042839;28;20486;-79
2022/05/08 12:54:32;;;;;;;0.30;0.30;;;15.30;96.40;;;;;;5042386;28;20089;-79
2022/05/08 12:57:02;;;;;;;;;;;15.60;96.30;;;;;;5016057;28;20052;-78
2022/05/08 12:59:47;;;;;;;1.10;0.65;;;16.10;95.00;;;;;;5045029;28;19925;-76
2022/05/08 13:02:18;;;;;;;0.47;0.47;;;16.30;96.30;;;;;;5019431;28;20124;-81
2022/05/08 13:04:46;;;;;;;0.40;0.40;;;16.40;95.90;;;;;;5044147;28;20052;-77
2022/05/08 13:07:12;;;;;;;0.88;0.88;;;16.50;94.30;;;;;;5042222;28;20124;-76
2022/05/08 13:09:38;;;;;;;0.47;0.47;;;16.50;96.50;;;;;;5038790;28;20068;-76
2022/05/08 13:12:05;;;;;;;0.28;0.28;;;16.50;96.90;;;;;;5028125;28;20045;-79
2022/05/08 13:14:32;;;;;;;0.30;0.30;;;16.60;94.20;;;;;;5041319;28;20136;-80
2022/05/08 13:16:59;;;;;;;0.30;0.30;;;16.80;94.90;;;;;;5026352;28;20570;-80
2022/05/08 13:19:29;;;;;;;0.77;0.77;;;17.10;91.50;;;;;;5039529;28;20088;-80
2022/05/08 13:21:57;;;;;;;0.20;0.20;;;17.40;94.50;;;;;;5048293;28;20066;-81
2022/05/08 13:24:23;;;;;;;0.40;0.40;;;17.40;93.20;;;;;;5048313;28;20056;-78
2022/05/08 13:26:51;;;;;;;0.40;0.40;;;17.20;97.30;;;;;;5028995;28;20128;-79
2022/05/08 13:29:17;;;;;;;0.30;0.30;;;17.20;94.00;;;;;;5036984;28;20041;-79
2022/05/08 13:31:42;;;;;;;0.43;0.43;;;17.50;92.90;;;;;;5025953;28;20067;-79